Observation data for Floydada on 10/18/2019      Previous  Date       Current Mesonet Observations  Soil Data  Daily Summary Page  Observations in Plain Language
KFLS 180500Z 16012KT 15/03 A2986 RMK A01 T01450032  RH  047%=      5-min Rain = 0
KFLS 180505Z 16012KT 14/03 A2986 RMK A01 T01430032  RH  048%=      5-min Rain = 0
KFLS 180510Z 16012KT 14/03 A2986 RMK A01 T01430031  RH  048%=      5-min Rain = 0
KFLS 180515Z 16011G16KT 14/03 A2986 RMK A01 T01420031  RH  048%=      5-min Rain = 0
KFLS 180520Z 16012KT 14/03 A2985 RMK A01 T01410031  RH  048%=      5-min Rain = 0
KFLS 180525Z 17012KT 14/03 A2985 RMK A01 T01410030  RH  048%=      5-min Rain = 0
KFLS 180530Z 17012KT 14/03 A2985 RMK A01 T01410030  RH  048%=      5-min Rain = 0
KFLS 180535Z 17012KT 14/03 A2985 RMK A01 T01420029  RH  047%=      5-min Rain = 0
KFLS 180540Z 17012KT 14/03 A2985 RMK A01 T01410029  RH  047%=      5-min Rain = 0
KFLS 180545Z 17012KT 14/03 A2985 RMK A01 T01420029  RH  047%=      5-min Rain = 0
KFLS 180550Z 17011KT 14/03 A2985 RMK A01 T01420029  RH  047%=      5-min Rain = 0
KFLS 180555Z 17013KT 14/03 A2985 RMK A01 T01440028  RH  046%=      5-min Rain = 0
KFLS 180600Z 17013G19KT 15/03 A2985 RMK A01 T01450027  RH  045%=      5-min Rain = 0
KFLS 180605Z 17013KT 15/03 A2985 RMK A01 T01450026  RH  045%=      5-min Rain = 0
KFLS 180610Z 17013KT 14/03 A2985 RMK A01 T01440025  RH  045%=      5-min Rain = 0
KFLS 180615Z 17013G19KT 14/02 A2985 RMK A01 T01430024  RH  045%=      5-min Rain = 0
KFLS 180620Z 17013G19KT 14/02 A2985 RMK A01 T01440022  RH  044%=      5-min Rain = 0
KFLS 180625Z 18013KT 14/02 A2985 RMK A01 T01430022  RH  044%=      5-min Rain = 0
KFLS 180630Z 17014G19KT 14/02 A2985 RMK A01 T01440020  RH  044%=      5-min Rain = 0
KFLS 180635Z 18014G19KT 15/02 A2985 RMK A01 T01450019  RH  043%=      5-min Rain = 0
KFLS 180640Z 18014KT 14/02 A2985 RMK A01 T01430019  RH  044%=      5-min Rain = 0
KFLS 180645Z 18014KT 14/02 A2985 RMK A01 T01430018  RH  043%=      5-min Rain = 0
KFLS 180650Z 18014KT 14/02 A2985 RMK A01 T01410017  RH  043%=      5-min Rain = 0
KFLS 180655Z 18013G18KT 14/02 A2985 RMK A01 T01400016  RH  044%=      5-min Rain = 0
KFLS 180700Z 18013KT 14/02 A2985 RMK A01 T01400016  RH  043%=      5-min Rain = 0
KFLS 180705Z 18013KT 14/02 A2985 RMK A01 T01390015  RH  044%=      5-min Rain = 0
KFLS 180710Z 18013KT 14/02 A2984 RMK A01 T01380015  RH  044%=      5-min Rain = 0
KFLS 180715Z 18013KT 14/02 A2984 RMK A01 T01370015  RH  044%=      5-min Rain = 0
KFLS 180720Z 18012KT 14/01 A2984 RMK A01 T01360014  RH  044%=      5-min Rain = 0
KFLS 180725Z 18012KT 13/01 A2984 RMK A01 T01340014  RH  044%=      5-min Rain = 0
KFLS 180730Z 18012KT 13/01 A2984 RMK A01 T01330014  RH  045%=      5-min Rain = 0
KFLS 180735Z 18012KT 13/01 A2984 RMK A01 T01330013  RH  045%=      5-min Rain = 0
KFLS 180740Z 18011KT 13/01 A2984 RMK A01 T01310013  RH  045%=      5-min Rain = 0
KFLS 180745Z 18011KT 13/01 A2984 RMK A01 T01300013  RH  045%=      5-min Rain = 0
KFLS 180750Z 18011KT 13/01 A2984 RMK A01 T01290013  RH  046%=      5-min Rain = 0
KFLS 180755Z 18011KT 13/01 A2984 RMK A01 T01280013  RH  046%=      5-min Rain = 0
KFLS 180800Z 18011KT 13/01 A2984 RMK A01 T01270013  RH  046%=      5-min Rain = 0
KFLS 180805Z 18011KT 13/01 A2984 RMK A01 T01260014  RH  047%=      5-min Rain = 0
KFLS 180810Z 18011KT 13/01 A2984 RMK A01 T01260014  RH  047%=      5-min Rain = 0
KFLS 180815Z 18010KT 13/01 A2983 RMK A01 T01250014  RH  047%=      5-min Rain = 0
KFLS 180820Z 18010KT 12/02 A2983 RMK A01 T01240015  RH  048%=      5-min Rain = 0
KFLS 180825Z 18010KT 12/02 A2983 RMK A01 T01240015  RH  048%=      5-min Rain = 0
KFLS 180830Z 18010KT 12/02 A2983 RMK A01 T01210016  RH  049%=      5-min Rain = 0
KFLS 180835Z 18010KT 12/02 A2983 RMK A01 T01220017  RH  049%=      5-min Rain = 0
KFLS 180840Z 18010KT 12/02 A2983 RMK A01 T01220018  RH  050%=      5-min Rain = 0
KFLS 180845Z 18010KT 12/02 A2983 RMK A01 T01210019  RH  050%=      5-min Rain = 0
KFLS 180850Z 18010KT 12/02 A2983 RMK A01 T01210020  RH  051%=      5-min Rain = 0
KFLS 180855Z 18011KT 12/02 A2982 RMK A01 T01210020  RH  051%=      5-min Rain = 0
KFLS 180900Z 18010KT 12/02 A2982 RMK A01 T01220021  RH  051%=      5-min Rain = 0
KFLS 180905Z 18010KT 12/02 A2982 RMK A01 T01200022  RH  052%=      5-min Rain = 0
KFLS 180910Z 18010KT 12/02 A2982 RMK A01 T01200023  RH  052%=      5-min Rain = 0
KFLS 180915Z 18009KT 12/02 A2982 RMK A01 T01200024  RH  053%=      5-min Rain = 0
KFLS 180920Z 18010KT 12/03 A2981 RMK A01 T01190025  RH  053%=      5-min Rain = 0
KFLS 180925Z 18010KT 12/03 A2981 RMK A01 T01180027  RH  054%=      5-min Rain = 0
KFLS 180930Z 18010KT 12/03 A2981 RMK A01 T01170027  RH  055%=      5-min Rain = 0
KFLS 180935Z 18009KT 12/03 A2981 RMK A01 T01160027  RH  055%=      5-min Rain = 0
KFLS 180940Z 18009KT 11/03 A2981 RMK A01 T01140027  RH  056%=      5-min Rain = 0
KFLS 180945Z 18009KT 11/03 A2981 RMK A01 T01120028  RH  057%=      5-min Rain = 0
KFLS 180950Z 18008KT 11/03 A298 RMK A01 T01100029  RH  058%=      5-min Rain = 0
KFLS 180955Z 18009KT 11/03 A298 RMK A01 T01090030  RH  059%=      5-min Rain = 0
KFLS 181000Z 18009KT 11/03 A298 RMK A01 T01110033  RH  059%=      5-min Rain = 0
KFLS 181005Z 18009KT 11/03 A298 RMK A01 T01100034  RH  060%=      5-min Rain = 0
KFLS 181010Z 18009KT 11/04 A298 RMK A01 T01100035  RH  060%=      5-min Rain = 0
KFLS 181015Z 18008KT 11/04 A298 RMK A01 T01090037  RH  062%=      5-min Rain = 0
KFLS 181020Z 17009KT 11/04 A298 RMK A01 T01100040  RH  063%=      5-min Rain = 0
KFLS 181025Z 18009KT 11/04 A298 RMK A01 T01110042  RH  063%=      5-min Rain = 0
KFLS 181030Z 19009KT 11/04 A298 RMK A01 T01080041  RH  064%=      5-min Rain = 0
KFLS 181035Z 20009KT 11/04 A298 RMK A01 T01070043  RH  065%=      5-min Rain = 0
KFLS 181040Z 19009KT 11/05 A298 RMK A01 T01090045  RH  065%=      5-min Rain = 0
KFLS 181045Z 19009KT 11/05 A298 RMK A01 T01080045  RH  066%=      5-min Rain = 0
KFLS 181050Z 19009KT 11/05 A2981 RMK A01 T01070045  RH  067%=      5-min Rain = 0
KFLS 181055Z 20009KT 10/05 A2981 RMK A01 T01040046  RH  068%=      5-min Rain = 0
KFLS 181100Z 20008KT 10/05 A2981 RMK A01 T01020046  RH  069%=      5-min Rain = 0
KFLS 181105Z 19008KT 10/05 A298 RMK A01 T01020048  RH  070%=      5-min Rain = 0
KFLS 181110Z 19009KT 11/05 A298 RMK A01 T01050051  RH  070%=      5-min Rain = 0
KFLS 181115Z 20009KT 11/05 A298 RMK A01 T01060052  RH  070%=      5-min Rain = 0
KFLS 181120Z 20008KT 10/05 A298 RMK A01 T01040053  RH  072%=      5-min Rain = 0
KFLS 181125Z 19008KT 10/05 A298 RMK A01 T01030054  RH  073%=      5-min Rain = 0
KFLS 181130Z 19008KT 10/06 A2981 RMK A01 T01040055  RH  073%=      5-min Rain = 0
KFLS 181135Z 19009KT 10/06 A2981 RMK A01 T01040056  RH  073%=      5-min Rain = 0
KFLS 181140Z 19008KT 11/06 A2981 RMK A01 T01050058  RH  074%=      5-min Rain = 0
KFLS 181145Z 19008KT 10/06 A2981 RMK A01 T01030059  RH  075%=      5-min Rain = 0
KFLS 181150Z 19008KT 10/06 A298 RMK A01 T01010059  RH  076%=      5-min Rain = 0
KFLS 181155Z 19008KT 10/06 A298 RMK A01 T01010060  RH  077%=      5-min Rain = 0
KFLS 181200Z 19008KT 10/06 A298 RMK A01 T01010062  RH  078%=      5-min Rain = 0
KFLS 181205Z 19009KT 10/06 A2981 RMK A01 T01040064  RH  078%=      5-min Rain = 0
KFLS 181210Z 19009KT 11/07 A298 RMK A01 T01050066  RH  078%=      5-min Rain = 0
KFLS 181215Z 19009KT 11/07 A298 RMK A01 T01060067  RH  078%=      5-min Rain = 0
KFLS 181220Z 19010KT 10/07 A298 RMK A01 T01040066  RH  078%=      5-min Rain = 0
KFLS 181225Z 19010KT 10/07 A298 RMK A01 T01040066  RH  078%=      5-min Rain = 0
KFLS 181230Z 19008KT 10/07 A298 RMK A01 T01020066  RH  080%=      5-min Rain = 0
KFLS 181235Z 19009KT 10/07 A298 RMK A01 T01030068  RH  080%=      5-min Rain = 0
KFLS 181240Z 19008KT 11/07 A298 RMK A01 T01050070  RH  080%=      5-min Rain = 0
KFLS 181245Z 19007KT 11/07 A298 RMK A01 T01050071  RH  080%=      5-min Rain = 0
KFLS 181250Z 19007KT 10/07 A298 RMK A01 T01030070  RH  081%=      5-min Rain = 0
KFLS 181255Z 19008KT 10/07 A298 RMK A01 T01040071  RH  081%=      5-min Rain = 0
KFLS 181300Z 19009KT 11/07 A298 RMK A01 T01050072  RH  081%=      5-min Rain = 0
KFLS 181305Z 19008KT 11/07 A298 RMK A01 T01060073  RH  082%=      5-min Rain = 0
KFLS 181310Z 19008KT 11/08 A298 RMK A01 T01070075  RH  082%=      5-min Rain = 0
KFLS 181315Z 19009KT 11/08 A298 RMK A01 T01090077  RH  082%=      5-min Rain = 0
KFLS 181320Z 19008KT 11/08 A298 RMK A01 T01110078  RH  081%=      5-min Rain = 0
KFLS 181325Z 18008KT 11/08 A298 RMK A01 T01130079  RH  081%=      5-min Rain = 0
KFLS 181330Z 18008KT 11/08 A298 RMK A01 T01140079  RH  080%=      5-min Rain = 0
KFLS 181335Z 18008KT 12/08 A298 RMK A01 T01170082  RH  080%=      5-min Rain = 0
KFLS 181340Z 18009KT 12/08 A298 RMK A01 T01210084  RH  079%=      5-min Rain = 0
KFLS 181345Z 18010KT 12/09 A298 RMK A01 T01240085  RH  078%=      5-min Rain = 0
KFLS 181350Z 18010KT 13/09 A298 RMK A01 T01260086  RH  078%=      5-min Rain = 0
KFLS 181355Z 18010KT 13/09 A298 RMK A01 T01290087  RH  077%=      5-min Rain = 0
KFLS 181400Z 18011KT 13/09 A298 RMK A01 T01330088  RH  076%=      5-min Rain = 0
KFLS 181405Z 19011KT 14/09 A298 RMK A01 T01360089  RH  075%=      5-min Rain = 0
KFLS 181410Z 19011KT 14/09 A298 RMK A01 T01380090  RH  074%=      5-min Rain = 0
KFLS 181415Z 19010KT 14/09 A298 RMK A01 T01420091  RH  073%=      5-min Rain = 0
KFLS 181420Z 19011KT 15/09 A298 RMK A01 T01460092  RH  071%=      5-min Rain = 0
KFLS 181425Z 20011KT 15/09 A298 RMK A01 T01520094  RH  069%=      5-min Rain = 0
KFLS 181430Z 20013KT 16/10 A298 RMK A01 T01550095  RH  068%=      5-min Rain = 0
KFLS 181435Z 20012G17KT 16/10 A298 RMK A01 T01600096  RH  067%=      5-min Rain = 0
KFLS 181440Z 19012KT 16/10 A298 RMK A01 T01640096  RH  065%=      5-min Rain = 0
KFLS 181445Z 19012KT 17/10 A298 RMK A01 T01680097  RH  064%=      5-min Rain = 0
KFLS 181450Z 19013KT 17/10 A298 RMK A01 T01730097  RH  062%=      5-min Rain = 0
KFLS 181455Z 19013KT 18/10 A298 RMK A01 T01770097  RH  061%=      5-min Rain = 0
KFLS 181500Z 19014KT 18/10 A298 RMK A01 T01780097  RH  060%=      5-min Rain = 0
KFLS 181505Z 20012KT 18/10 A2979 RMK A01 T01810098  RH  059%=      5-min Rain = 0
KFLS 181510Z 20013KT 19/10 A2979 RMK A01 T01850098  RH  058%=      5-min Rain = 0
KFLS 181515Z 19013KT 19/10 A2979 RMK A01 T01910098  RH  056%=      5-min Rain = 0
KFLS 181520Z 19012KT 20/10 A2979 RMK A01 T01950098  RH  054%=      5-min Rain = 0
KFLS 181525Z 19013KT 20/10 A2979 RMK A01 T01980098  RH  053%=      5-min Rain = 0
KFLS 181530Z 19013KT 20/10 A2978 RMK A01 T01990098  RH  053%=      5-min Rain = 0
KFLS 181535Z 19013KT 21/10 A2978 RMK A01 T02050099  RH  051%=      5-min Rain = 0
KFLS 181540Z 19015KT 20/10 A2978 RMK A01 T02040097  RH  051%=      5-min Rain = 0
KFLS 181545Z 19014KT 21/10 A2978 RMK A01 T02050098  RH  051%=      5-min Rain = 0
KFLS 181550Z 19014KT 21/10 A2978 RMK A01 T02060097  RH  051%=      5-min Rain = 0
KFLS 181555Z 20013KT 21/10 A2978 RMK A01 T02100098  RH  049%=      5-min Rain = 0
KFLS 181600Z 19013G18KT 21/10 A2978 RMK A01 T02140098  RH  048%=      5-min Rain = 0
KFLS 181605Z 21012KT 21/10 A2978 RMK A01 T02130098  RH  048%=      5-min Rain = 0
KFLS 181610Z 20013KT 22/10 A2978 RMK A01 T02160097  RH  047%=      5-min Rain = 0
KFLS 181615Z 20013KT 22/10 A2978 RMK A01 T02190098  RH  047%=      5-min Rain = 0
KFLS 181620Z 20013KT 22/10 A2978 RMK A01 T02210098  RH  046%=      5-min Rain = 0
KFLS 181625Z 20013KT 22/10 A2978 RMK A01 T02230098  RH  046%=      5-min Rain = 0
KFLS 181630Z 20012KT 23/10 A2977 RMK A01 T02290099  RH  044%=      5-min Rain = 0
KFLS 181635Z 19012KT 23/10 A2977 RMK A01 T02300099  RH  044%=      5-min Rain = 0
KFLS 181640Z 19013KT 23/10 A2977 RMK A01 T02310098  RH  044%=      5-min Rain = 0
KFLS 181645Z 20013KT 23/10 A2977 RMK A01 T02300099  RH  044%=      5-min Rain = 0
KFLS 181650Z 20011G16KT 23/10 A2977 RMK A01 T02320099  RH  043%=      5-min Rain = 0
KFLS 181655Z 20013KT 23/10 A2977 RMK A01 T02280098  RH  044%=      5-min Rain = 0
KFLS 181700Z 20013G18KT 23/10 A2977 RMK A01 T02270098  RH  045%=      5-min Rain = 0
KFLS 181705Z 21013KT 23/10 A2976 RMK A01 T02290097  RH  044%=      5-min Rain = 0
KFLS 181710Z 21013KT 23/10 A2976 RMK A01 T02310099  RH  044%=      5-min Rain = 0
KFLS 181715Z 20015KT 23/10 A2976 RMK A01 T02270097  RH  044%=      5-min Rain = 0
KFLS 181720Z 21012KT 23/10 A2976 RMK A01 T02320099  RH  044%=      5-min Rain = 0
KFLS 181725Z 20014G19KT 24/10 A2975 RMK A01 T02360100  RH  043%=      5-min Rain = 0
KFLS 181730Z 20016KT 25/10 A2975 RMK A01 T02510101  RH  040%=      5-min Rain = 0
KFLS 181735Z 21014KT 25/10 A2975 RMK A01 T02470100  RH  040%=      5-min Rain = 0
KFLS 181740Z 21012G18KT 25/10 A2975 RMK A01 T02460101  RH  041%=      5-min Rain = 0
KFLS 181745Z 20016KT 25/10 A2975 RMK A01 T02520101  RH  039%=      5-min Rain = 0
KFLS 181750Z 20016G21KT 25/10 A2974 RMK A01 T02530102  RH  039%=      5-min Rain = 0
KFLS 181755Z 21015KT 26/10 A2974 RMK A01 T02580103  RH  038%=      5-min Rain = 0
KFLS 181800Z 20015G22KT 26/10 A2974 RMK A01 T02570102  RH  038%=      5-min Rain = 0
KFLS 181805Z 20016KT 26/10 A2974 RMK A01 T02590103  RH  038%=      5-min Rain = 0
KFLS 181810Z 21015G20KT 26/10 A2973 RMK A01 T02570102  RH  038%=      5-min Rain = 0
KFLS 181815Z 21013G18KT 26/10 A2973 RMK A01 T02600102  RH  038%=      5-min Rain = 0
KFLS 181820Z 21012G18KT 26/10 A2973 RMK A01 T02630104  RH  037%=      5-min Rain = 0
KFLS 181825Z 20016G22KT 27/10 A2972 RMK A01 T02680104  RH  036%=      5-min Rain = 0
KFLS 181830Z 20015KT 27/10 A2972 RMK A01 T02690104  RH  036%=      5-min Rain = 0
KFLS 181835Z 20017KT 27/10 A2972 RMK A01 T02670103  RH  036%=      5-min Rain = 0
KFLS 181840Z 19015KT 27/10 A2971 RMK A01 T02670103  RH  036%=      5-min Rain = 0
KFLS 181845Z 20016G21KT 27/10 A2971 RMK A01 T02700103  RH  036%=      5-min Rain = 0
KFLS 181850Z 21015KT 27/10 A2971 RMK A01 T02680103  RH  036%=      5-min Rain = 0
KFLS 181855Z 21016G23KT 27/10 A297 RMK A01 T02720104  RH  036%=      5-min Rain = 0
KFLS 181900Z 21015G21KT 27/10 A297 RMK A01 T02740104  RH  035%=      5-min Rain = 0
KFLS 181905Z 21015G21KT 28/11 A297 RMK A01 T02790105  RH  034%=      5-min Rain = 0
KFLS 181910Z 21015G22KT 28/10 A2969 RMK A01 T02780103  RH  034%=      5-min Rain = 0
KFLS 181915Z 20013KT 28/11 A2969 RMK A01 T02830105  RH  034%=      5-min Rain = 0
KFLS 181920Z 20012KT 29/11 A2968 RMK A01 T02870106  RH  033%=      5-min Rain = 0
KFLS 181925Z 22013G18KT 28/10 A2968 RMK A01 T02820104  RH  034%=      5-min Rain = 0
KFLS 181930Z 21015KT 28/10 A2968 RMK A01 T02840104  RH  033%=      5-min Rain = 0
KFLS 181935Z 22013G19KT 28/10 A2968 RMK A01 T02830103  RH  033%=      5-min Rain = 0
KFLS 181940Z 22015G21KT 29/10 A2967 RMK A01 T02880103  RH  032%=      5-min Rain = 0
KFLS 181945Z 22013KT 29/10 A2967 RMK A01 T02880103  RH  032%=      5-min Rain = 0
KFLS 181950Z 21014G22KT 29/10 A2967 RMK A01 T02880103  RH  032%=      5-min Rain = 0
KFLS 181955Z 20014G19KT 28/10 A2967 RMK A01 T02820102  RH  033%=      5-min Rain = 0
KFLS 182000Z 22013G18KT 29/10 A2966 RMK A01 T02900101  RH  031%=      5-min Rain = 0
KFLS 182005Z 20014KT 29/10 A2966 RMK A01 T02920101  RH  031%=      5-min Rain = 0
KFLS 182010Z 20012G17KT 30/10 A2966 RMK A01 T02960100  RH  030%=      5-min Rain = 0
KFLS 182015Z 21011G18KT 29/10 A2965 RMK A01 T02910101  RH  031%=      5-min Rain = 0
KFLS 182020Z 20018G24KT 30/10 A2965 RMK A01 T02980099  RH  029%=      5-min Rain = 0
KFLS 182025Z 20016G24KT 30/10 A2965 RMK A01 T02990098  RH  029%=      5-min Rain = 0
KFLS 182030Z 20015G21KT 30/10 A2964 RMK A01 T03040096  RH  028%=      5-min Rain = 0
KFLS 182035Z 20019G26KT 30/09 A2964 RMK A01 T02960088  RH  028%=      5-min Rain = 0
KFLS 182040Z 21019G24KT 28/09 A2964 RMK A01 T02820085  RH  029%=      5-min Rain = 0
KFLS 182045Z 21016G27KT 30/08 A2963 RMK A01 T02980082  RH  026%=      5-min Rain = 0
KFLS 182050Z 20020G28KT 30/06 A2963 RMK A01 T03040058  RH  022%=      5-min Rain = 0
KFLS 182055Z 22019G26KT 30/06 A2963 RMK A01 T03020056  RH  022%=      5-min Rain = 0
KFLS 182100Z 22017G24KT 30/07 A2963 RMK A01 T03040065  RH  023%=      5-min Rain = 0
KFLS 182105Z 22016G22KT 30/07 A2963 RMK A01 T03020070  RH  024%=      5-min Rain = 0
KFLS 182110Z 22016G22KT 30/07 A2963 RMK A01 T02970073  RH  025%=      5-min Rain = 0
KFLS 182115Z 21018G25KT 30/07 A2963 RMK A01 T03020074  RH  024%=      5-min Rain = 0
KFLS 182120Z 20018G24KT 30/07 A2963 RMK A01 T03020067  RH  023%=      5-min Rain = 0
KFLS 182125Z 21017KT 30/06 A2963 RMK A01 T02990058  RH  022%=      5-min Rain = 0
KFLS 182130Z 20015G23KT 30/06 A2963 RMK A01 T03020060  RH  022%=      5-min Rain = 0
KFLS 182135Z 20016G21KT 30/05 A2963 RMK A01 T03020052  RH  021%=      5-min Rain = 0
KFLS 182140Z 21019G26KT 30/04 A2963 RMK A01 T03030044  RH  020%=      5-min Rain = 0
KFLS 182145Z 21016G25KT 30/04 A2963 RMK A01 T03020035  RH  019%=      5-min Rain = 0
KFLS 182150Z 21020G28KT 30/02 A2963 RMK A01 T03010023  RH  017%=      5-min Rain = 0
KFLS 182155Z 22016G24KT 30/03 A2963 RMK A01 T03000025  RH  017%=      5-min Rain = 0
KFLS 182200Z 22017G23KT 30/03 A2963 RMK A01 T03000026  RH  018%=      5-min Rain = 0
KFLS 182205Z 22019G26KT 30/02 A2963 RMK A01 T02980024  RH  018%=      5-min Rain = 0
KFLS 182210Z 22016G25KT 30/03 A2963 RMK A01 T02970033  RH  019%=      5-min Rain = 0
KFLS 182215Z 21018G25KT 30/04 A2963 RMK A01 T02950036  RH  019%=      5-min Rain = 0
KFLS 182220Z 21018G24KT 29/04 A2963 RMK A01 T02940035  RH  019%=      5-min Rain = 0
KFLS 182225Z 21015G21KT 29/04 A2963 RMK A01 T02940038  RH  020%=      5-min Rain = 0
KFLS 182230Z 21016KT 29/04 A2963 RMK A01 T02940038  RH  020%=      5-min Rain = 0
KFLS 182235Z 21015G20KT 29/04 A2963 RMK A01 T02920042  RH  021%=      5-min Rain = 0
KFLS 182240Z 21016G22KT 29/04 A2963 RMK A01 T02910044  RH  021%=      5-min Rain = 0
KFLS 182245Z 21015G21KT 29/04 A2963 RMK A01 T02890044  RH  021%=      5-min Rain = 0
KFLS 182250Z 22013G18KT 28/05 A2963 RMK A01 T02820051  RH  023%=      5-min Rain = 0
KFLS 182255Z 23012G17KT 28/06 A2963 RMK A01 T02820056  RH  024%=      5-min Rain = 0
KFLS 182300Z 23012G17KT 28/06 A2963 RMK A01 T02780058  RH  025%=      5-min Rain = 0
KFLS 182305Z 22014KT 28/06 A2963 RMK A01 T02790059  RH  025%=      5-min Rain = 0
KFLS 182310Z 21016KT 28/06 A2963 RMK A01 T02800059  RH  025%=      5-min Rain = 0
KFLS 182315Z 22013G18KT 28/06 A2963 RMK A01 T02780060  RH  025%=      5-min Rain = 0
KFLS 182320Z 22012G17KT 28/06 A2963 RMK A01 T02770063  RH  026%=      5-min Rain = 0
KFLS 182325Z 22010G15KT 27/07 A2963 RMK A01 T02730066  RH  027%=      5-min Rain = 0
KFLS 182330Z 22011KT 27/07 A2964 RMK A01 T02710065  RH  027%=      5-min Rain = 0
KFLS 182335Z 22010KT 27/07 A2964 RMK A01 T02700065  RH  027%=      5-min Rain = 0
KFLS 182340Z 22010KT 27/06 A2964 RMK A01 T02690063  RH  027%=      5-min Rain = 0
KFLS 182345Z 22009KT 27/06 A2964 RMK A01 T02670064  RH  028%=      5-min Rain = 0
KFLS 182350Z 23009KT 26/07 A2964 RMK A01 T02630065  RH  029%=      5-min Rain = 0
KFLS 182355Z 22008KT 26/07 A2964 RMK A01 T02580065  RH  029%=      5-min Rain = 0
KFLS 190000Z 23009KT 26/07 A2964 RMK A01 T02560066  RH  030%=      5-min Rain = 0
KFLS 190005Z 22008KT 25/07 A2964 RMK A01 T02520067  RH  031%=      5-min Rain = 0
KFLS 190010Z 22008KT 25/07 A2964 RMK A01 T02520067  RH  031%=      5-min Rain = 0
KFLS 190015Z 21008KT 25/07 A2964 RMK A01 T02500067  RH  031%=      5-min Rain = 0
KFLS 190020Z 22008KT 25/07 A2964 RMK A01 T02470067  RH  032%=      5-min Rain = 0
KFLS 190025Z 22008KT 24/07 A2964 RMK A01 T02440068  RH  033%=      5-min Rain = 0
KFLS 190030Z 22007KT 24/07 A2964 RMK A01 T02420068  RH  033%=      5-min Rain = 0
KFLS 190035Z 22007KT 24/07 A2964 RMK A01 T02400068  RH  034%=      5-min Rain = 0
KFLS 190040Z 22007KT 24/07 A2964 RMK A01 T02370068  RH  034%=      5-min Rain = 0
KFLS 190045Z 22007KT 24/07 A2964 RMK A01 T02360068  RH  034%=      5-min Rain = 0
KFLS 190050Z 22006KT 23/07 A2965 RMK A01 T02330068  RH  035%=      5-min Rain = 0
KFLS 190055Z 22007KT 23/07 A2965 RMK A01 T02320068  RH  035%=      5-min Rain = 0
KFLS 190100Z 20009KT 23/07 A2966 RMK A01 T02260071  RH  037%=      5-min Rain = 0
KFLS 190105Z 20011KT 23/07 A2965 RMK A01 T02310070  RH  036%=      5-min Rain = 0
KFLS 190110Z 20010KT 23/07 A2966 RMK A01 T02280070  RH  036%=      5-min Rain = 0
KFLS 190115Z 20009KT 23/07 A2966 RMK A01 T02250068  RH  037%=      5-min Rain = 0
KFLS 190120Z 19008KT 22/07 A2966 RMK A01 T02190068  RH  038%=      5-min Rain = 0
KFLS 190125Z 21007KT 21/07 A2966 RMK A01 T02140068  RH  039%=      5-min Rain = 0
KFLS 190130Z 23007KT 22/07 A2966 RMK A01 T02150067  RH  039%=      5-min Rain = 0
KFLS 190135Z 28019G30KT 21/07 A2969 RMK A01 T02100070  RH  041%=      5-min Rain = 0
KFLS 190140Z 29023G31KT 21/08 A297 RMK A01 T02110076  RH  042%=      5-min Rain = 0
KFLS 190145Z 29018G25KT 20/09 A297 RMK A01 T01950091  RH  052%=      5-min Rain = 0
KFLS 190150Z 29017G23KT 19/09 A297 RMK A01 T01890093  RH  055%=      5-min Rain = 0
KFLS 190155Z 29015G20KT 19/09 A297 RMK A01 T01860094  RH  056%=      5-min Rain = 0
KFLS 190200Z 29013KT 18/10 A297 RMK A01 T01810096  RH  058%=      5-min Rain = 0
KFLS 190205Z 30011G16KT 18/09 A297 RMK A01 T01800094  RH  058%=      5-min Rain = 0
KFLS 190210Z 30010KT 18/09 A297 RMK A01 T01770094  RH  059%=      5-min Rain = 0
KFLS 190215Z 30009KT 18/09 A297 RMK A01 T01770094  RH  059%=      5-min Rain = 0
KFLS 190220Z 30009KT 17/10 A297 RMK A01 T01720095  RH  061%=      5-min Rain = 0
KFLS 190225Z 30007KT 17/10 A297 RMK A01 T01680095  RH  063%=      5-min Rain = 0
KFLS 190230Z 29006KT 16/09 A297 RMK A01 T01640094  RH  064%=      5-min Rain = 0
KFLS 190235Z 29005KT 16/09 A297 RMK A01 T01600094  RH  066%=      5-min Rain = 0
KFLS 190240Z 26005KT 16/09 A297 RMK A01 T01560093  RH  067%=      5-min Rain = 0
KFLS 190245Z 24005KT 16/09 A297 RMK A01 T01550093  RH  067%=      5-min Rain = 0
KFLS 190250Z 24007KT 16/09 A2971 RMK A01 T01550094  RH  068%=      5-min Rain = 0
KFLS 190255Z 23007KT 16/09 A2971 RMK A01 T01550093  RH  068%=      5-min Rain = 0
KFLS 190300Z 22008KT 16/10 A2972 RMK A01 T01550095  RH  068%=      5-min Rain = 0
KFLS 190305Z 20012KT 15/10 A2973 RMK A01 T01540095  RH  069%=      5-min Rain = 0
KFLS 190310Z 20012KT 16/09 A2973 RMK A01 T01610091  RH  064%=      5-min Rain = 0
KFLS 190315Z 22010KT 17/09 A2973 RMK A01 T01690087  RH  059%=      5-min Rain = 0
KFLS 190320Z 22009KT 17/08 A2973 RMK A01 T01730084  RH  057%=      5-min Rain = 0
KFLS 190325Z 22008KT 17/08 A2973 RMK A01 T01700083  RH  057%=      5-min Rain = 0
KFLS 190330Z 22008KT 17/08 A2973 RMK A01 T01690083  RH  058%=      5-min Rain = 0
KFLS 190335Z 23008KT 17/08 A2973 RMK A01 T01670082  RH  058%=      5-min Rain = 0
KFLS 190340Z 23006KT 16/08 A2973 RMK A01 T01640082  RH  059%=      5-min Rain = 0
KFLS 190345Z 22007KT 16/08 A2973 RMK A01 T01620081  RH  060%=      5-min Rain = 0
KFLS 190350Z 22007KT 16/08 A2973 RMK A01 T01590081  RH  060%=      5-min Rain = 0
KFLS 190355Z 22006KT 16/08 A2973 RMK A01 T01580081  RH  061%=      5-min Rain = 0
KFLS 190400Z 22007KT 15/08 A2973 RMK A01 T01540080  RH  062%=      5-min Rain = 0
KFLS 190405Z 21007KT 15/08 A2973 RMK A01 T01510080  RH  063%=      5-min Rain = 0
KFLS 190410Z 22008KT 15/08 A2973 RMK A01 T01510080  RH  063%=      5-min Rain = 0
KFLS 190415Z 22007KT 16/08 A2973 RMK A01 T01560079  RH  061%=      5-min Rain = 0
KFLS 190420Z 22005KT 16/08 A2973 RMK A01 T01570078  RH  060%=      5-min Rain = 0
KFLS 190425Z 24007KT 15/08 A2973 RMK A01 T01530078  RH  062%=      5-min Rain = 0
KFLS 190430Z 24007KT 14/08 A2974 RMK A01 T01400077  RH  067%=      5-min Rain = 0
KFLS 190435Z 24007KT 14/08 A2973 RMK A01 T01410077  RH  066%=      5-min Rain = 0
KFLS 190440Z 24008KT 14/08 A2973 RMK A01 T01410076  RH  066%=      5-min Rain = 0
KFLS 190445Z 24008KT 14/08 A2974 RMK A01 T01370075  RH  067%=      5-min Rain = 0
KFLS 190450Z 24007KT 13/07 A2974 RMK A01 T01320074  RH  069%=      5-min Rain = 0
KFLS 190455Z 24008KT 13/07 A2974 RMK A01 T01300074  RH  070%=      5-min Rain = 0

Page generated in 0.0155 seconds.